sensor_id;sensor_type;location;lat;lon;timestamp;P1;durP1;ratioP1;P2;durP2;ratioP2
3993;SDS011;2011;48.238;13.948;2022-08-19T00:01:48;7.37;;;3.30;;
3993;SDS011;2011;48.238;13.948;2022-08-19T00:04:17;12.40;;;3.50;;
3993;SDS011;2011;48.238;13.948;2022-08-19T00:06:46;7.60;;;3.13;;
3993;SDS011;2011;48.238;13.948;2022-08-19T00:09:14;15.63;;;3.97;;
3993;SDS011;2011;48.238;13.948;2022-08-19T00:11:44;15.03;;;3.57;;
3993;SDS011;2011;48.238;13.948;2022-08-19T00:14:13;12.83;;;3.70;;
3993;SDS011;2011;48.238;13.948;2022-08-19T00:16:42;15.37;;;3.90;;
3993;SDS011;2011;48.238;13.948;2022-08-19T00:19:10;9.60;;;4.10;;
3993;SDS011;2011;48.238;13.948;2022-08-19T00:21:38;21.93;;;4.23;;
3993;SDS011;2011;48.238;13.948;2022-08-19T00:24:06;17.73;;;4.60;;
3993;SDS011;2011;48.238;13.948;2022-08-19T00:26:34;13.73;;;4.87;;
3993;SDS011;2011;48.238;13.948;2022-08-19T00:29:04;14.13;;;5.37;;
3993;SDS011;2011;48.238;13.948;2022-08-19T00:31:31;17.70;;;6.10;;
3993;SDS011;2011;48.238;13.948;2022-08-19T00:33:59;13.57;;;6.10;;
3993;SDS011;2011;48.238;13.948;2022-08-19T00:36:26;13.43;;;5.67;;
3993;SDS011;2011;48.238;13.948;2022-08-19T00:38:54;13.73;;;5.30;;
3993;SDS011;2011;48.238;13.948;2022-08-19T00:41:21;12.00;;;5.50;;
3993;SDS011;2011;48.238;13.948;2022-08-19T00:43:56;14.33;;;6.40;;
3993;SDS011;2011;48.238;13.948;2022-08-19T00:46:26;17.70;;;7.87;;
3993;SDS011;2011;48.238;13.948;2022-08-19T00:48:54;11.27;;;6.90;;
3993;SDS011;2011;48.238;13.948;2022-08-19T00:51:22;24.10;;;7.23;;
3993;SDS011;2011;48.238;13.948;2022-08-19T00:53:50;12.23;;;6.00;;
3993;SDS011;2011;48.238;13.948;2022-08-19T00:56:17;14.13;;;6.50;;
3993;SDS011;2011;48.238;13.948;2022-08-19T00:58:44;16.77;;;5.80;;
3993;SDS011;2011;48.238;13.948;2022-08-19T01:01:11;16.27;;;6.33;;
3993;SDS011;2011;48.238;13.948;2022-08-19T01:03:40;12.87;;;6.57;;
3993;SDS011;2011;48.238;13.948;2022-08-19T01:06:07;16.77;;;8.70;;
3993;SDS011;2011;48.238;13.948;2022-08-19T01:08:35;15.33;;;8.60;;
3993;SDS011;2011;48.238;13.948;2022-08-19T01:11:02;19.00;;;8.87;;
3993;SDS011;2011;48.238;13.948;2022-08-19T01:13:30;13.57;;;8.23;;
3993;SDS011;2011;48.238;13.948;2022-08-19T01:16:00;13.80;;;7.90;;
3993;SDS011;2011;48.238;13.948;2022-08-19T01:18:29;12.20;;;7.10;;
3993;SDS011;2011;48.238;13.948;2022-08-19T01:21:02;14.93;;;6.80;;
3993;SDS011;2011;48.238;13.948;2022-08-19T01:23:35;17.00;;;7.53;;
3993;SDS011;2011;48.238;13.948;2022-08-19T01:26:12;14.90;;;6.17;;
3993;SDS011;2011;48.238;13.948;2022-08-19T01:28:41;14.93;;;5.80;;
3993;SDS011;2011;48.238;13.948;2022-08-19T01:31:10;15.57;;;7.23;;
3993;SDS011;2011;48.238;13.948;2022-08-19T01:33:40;15.53;;;5.50;;
3993;SDS011;2011;48.238;13.948;2022-08-19T01:36:09;11.40;;;3.83;;
3993;SDS011;2011;48.238;13.948;2022-08-19T01:38:40;21.60;;;5.80;;
3993;SDS011;2011;48.238;13.948;2022-08-19T01:41:09;12.80;;;4.70;;
3993;SDS011;2011;48.238;13.948;2022-08-19T01:43:37;24.40;;;5.20;;
3993;SDS011;2011;48.238;13.948;2022-08-19T01:46:04;16.63;;;4.70;;
3993;SDS011;2011;48.238;13.948;2022-08-19T01:48:35;13.33;;;6.03;;
3993;SDS011;2011;48.238;13.948;2022-08-19T01:51:04;15.10;;;5.10;;
3993;SDS011;2011;48.238;13.948;2022-08-19T01:53:31;14.90;;;5.00;;
3993;SDS011;2011;48.238;13.948;2022-08-19T01:56:01;18.90;;;4.57;;
3993;SDS011;2011;48.238;13.948;2022-08-19T01:58:29;10.77;;;4.70;;
3993;SDS011;2011;48.238;13.948;2022-08-19T02:00:58;10.73;;;5.40;;
3993;SDS011;2011;48.238;13.948;2022-08-19T02:03:25;11.47;;;4.90;;
3993;SDS011;2011;48.238;13.948;2022-08-19T02:05:55;16.03;;;4.87;;
3993;SDS011;2011;48.238;13.948;2022-08-19T02:08:24;12.93;;;5.10;;
3993;SDS011;2011;48.238;13.948;2022-08-19T02:10:51;19.00;;;5.70;;
3993;SDS011;2011;48.238;13.948;2022-08-19T02:13:20;14.03;;;5.87;;
3993;SDS011;2011;48.238;13.948;2022-08-19T02:15:47;18.00;;;6.33;;
3993;SDS011;2011;48.238;13.948;2022-08-19T02:18:15;14.03;;;5.80;;
3993;SDS011;2011;48.238;13.948;2022-08-19T02:20:42;18.97;;;5.90;;
3993;SDS011;2011;48.238;13.948;2022-08-19T02:23:12;16.83;;;5.60;;
3993;SDS011;2011;48.238;13.948;2022-08-19T02:25:40;10.80;;;4.70;;
3993;SDS011;2011;48.238;13.948;2022-08-19T02:28:09;19.93;;;5.70;;
3993;SDS011;2011;48.238;13.948;2022-08-19T02:30:38;11.13;;;5.47;;
3993;SDS011;2011;48.238;13.948;2022-08-19T02:33:06;11.80;;;5.70;;
3993;SDS011;2011;48.238;13.948;2022-08-19T02:35:34;16.07;;;5.37;;
3993;SDS011;2011;48.238;13.948;2022-08-19T02:38:00;16.07;;;5.30;;
3993;SDS011;2011;48.238;13.948;2022-08-19T02:40:48;14.50;;;4.83;;
3993;SDS011;2011;48.238;13.948;2022-08-19T02:43:16;15.33;;;4.03;;
3993;SDS011;2011;48.238;13.948;2022-08-19T02:45:46;13.30;;;4.97;;
3993;SDS011;2011;48.238;13.948;2022-08-19T02:48:14;13.53;;;5.93;;
3993;SDS011;2011;48.238;13.948;2022-08-19T02:50:43;10.87;;;6.20;;
3993;SDS011;2011;48.238;13.948;2022-08-19T02:53:10;13.40;;;6.97;;
3993;SDS011;2011;48.238;13.948;2022-08-19T02:55:41;14.37;;;6.43;;
3993;SDS011;2011;48.238;13.948;2022-08-19T02:58:09;12.63;;;6.70;;
3993;SDS011;2011;48.238;13.948;2022-08-19T03:00:40;14.37;;;7.60;;
3993;SDS011;2011;48.238;13.948;2022-08-19T03:03:10;20.73;;;6.83;;
3993;SDS011;2011;48.238;13.948;2022-08-19T03:05:37;16.60;;;7.00;;
3993;SDS011;2011;48.238;13.948;2022-08-19T03:08:05;14.23;;;6.50;;
3993;SDS011;2011;48.238;13.948;2022-08-19T03:10:33;8.90;;;4.90;;
3993;SDS011;2011;48.238;13.948;2022-08-19T03:13:07;10.70;;;5.67;;
3993;SDS011;2011;48.238;13.948;2022-08-19T03:15:34;17.10;;;5.80;;
3993;SDS011;2011;48.238;13.948;2022-08-19T03:18:04;10.63;;;5.90;;
3993;SDS011;2011;48.238;13.948;2022-08-19T03:20:33;14.27;;;6.03;;
3993;SDS011;2011;48.238;13.948;2022-08-19T03:23:00;13.53;;;6.27;;
3993;SDS011;2011;48.238;13.948;2022-08-19T03:25:27;14.67;;;6.63;;
3993;SDS011;2011;48.238;13.948;2022-08-19T03:27:54;16.87;;;6.70;;
3993;SDS011;2011;48.238;13.948;2022-08-19T03:30:21;20.13;;;6.00;;
3993;SDS011;2011;48.238;13.948;2022-08-19T03:32:48;19.83;;;6.63;;
3993;SDS011;2011;48.238;13.948;2022-08-19T03:35:15;20.70;;;6.13;;
3993;SDS011;2011;48.238;13.948;2022-08-19T03:37:43;18.27;;;7.63;;
3993;SDS011;2011;48.238;13.948;2022-08-19T03:40:11;15.43;;;7.37;;
3993;SDS011;2011;48.238;13.948;2022-08-19T03:42:37;19.07;;;8.10;;
3993;SDS011;2011;48.238;13.948;2022-08-19T03:45:07;16.43;;;9.87;;
3993;SDS011;2011;48.238;13.948;2022-08-19T03:47:35;16.50;;;12.10;;
3993;SDS011;2011;48.238;13.948;2022-08-19T03:50:03;21.63;;;12.93;;
3993;SDS011;2011;48.238;13.948;2022-08-19T03:52:30;21.97;;;13.60;;
3993;SDS011;2011;48.238;13.948;2022-08-19T03:54:58;16.53;;;11.80;;
3993;SDS011;2011;48.238;13.948;2022-08-19T03:57:25;20.37;;;14.70;;
3993;SDS011;2011;48.238;13.948;2022-08-19T03:59:53;24.13;;;15.23;;
3993;SDS011;2011;48.238;13.948;2022-08-19T04:02:20;21.50;;;14.53;;
3993;SDS011;2011;48.238;13.948;2022-08-19T04:04:47;25.27;;;15.40;;
3993;SDS011;2011;48.238;13.948;2022-08-19T04:07:14;21.50;;;15.37;;
3993;SDS011;2011;48.238;13.948;2022-08-19T04:09:46;25.10;;;16.23;;
3993;SDS011;2011;48.238;13.948;2022-08-19T04:12:15;26.40;;;17.20;;
3993;SDS011;2011;48.238;13.948;2022-08-19T04:14:42;24.47;;;17.20;;
3993;SDS011;2011;48.238;13.948;2022-08-19T04:17:09;23.47;;;16.70;;
3993;SDS011;2011;48.238;13.948;2022-08-19T04:19:38;25.87;;;17.00;;
3993;SDS011;2011;48.238;13.948;2022-08-19T04:22:05;22.40;;;15.70;;
3993;SDS011;2011;48.238;13.948;2022-08-19T04:24:33;25.03;;;14.10;;
3993;SDS011;2011;48.238;13.948;2022-08-19T04:27:01;20.77;;;13.10;;
3993;SDS011;2011;48.238;13.948;2022-08-19T04:29:30;20.60;;;14.00;;
3993;SDS011;2011;48.238;13.948;2022-08-19T04:31:57;21.90;;;13.33;;
3993;SDS011;2011;48.238;13.948;2022-08-19T04:34:26;21.00;;;13.00;;
3993;SDS011;2011;48.238;13.948;2022-08-19T04:36:56;27.60;;;14.23;;
3993;SDS011;2011;48.238;13.948;2022-08-19T04:39:24;25.40;;;15.77;;
3993;SDS011;2011;48.238;13.948;2022-08-19T04:42:13;28.50;;;15.93;;
3993;SDS011;2011;48.238;13.948;2022-08-19T04:44:59;20.63;;;15.40;;
3993;SDS011;2011;48.238;13.948;2022-08-19T04:47:27;25.63;;;15.60;;
3993;SDS011;2011;48.238;13.948;2022-08-19T04:49:55;23.27;;;15.07;;
3993;SDS011;2011;48.238;13.948;2022-08-19T04:52:22;20.90;;;15.60;;
3993;SDS011;2011;48.238;13.948;2022-08-19T04:54:49;19.70;;;15.40;;
3993;SDS011;2011;48.238;13.948;2022-08-19T04:57:16;25.33;;;16.37;;
3993;SDS011;2011;48.238;13.948;2022-08-19T04:59:43;22.10;;;17.23;;
3993;SDS011;2011;48.238;13.948;2022-08-19T05:02:12;24.70;;;18.43;;
3993;SDS011;2011;48.238;13.948;2022-08-19T05:04:39;30.10;;;18.50;;
3993;SDS011;2011;48.238;13.948;2022-08-19T05:07:06;27.33;;;18.33;;
3993;SDS011;2011;48.238;13.948;2022-08-19T05:09:35;27.70;;;19.43;;
3993;SDS011;2011;48.238;13.948;2022-08-19T05:12:02;28.27;;;20.80;;
3993;SDS011;2011;48.238;13.948;2022-08-19T05:14:30;32.67;;;21.17;;
3993;SDS011;2011;48.238;13.948;2022-08-19T05:16:57;29.23;;;21.00;;
3993;SDS011;2011;48.238;13.948;2022-08-19T05:19:26;33.63;;;20.47;;
3993;SDS011;2011;48.238;13.948;2022-08-19T05:22:10;26.77;;;20.17;;
3993;SDS011;2011;48.238;13.948;2022-08-19T05:24:55;27.60;;;18.30;;
3993;SDS011;2011;48.238;13.948;2022-08-19T05:27:21;27.33;;;18.53;;
3993;SDS011;2011;48.238;13.948;2022-08-19T05:29:48;30.77;;;20.00;;
3993;SDS011;2011;48.238;13.948;2022-08-19T05:32:15;28.23;;;18.60;;
3993;SDS011;2011;48.238;13.948;2022-08-19T05:34:44;49.53;;;19.13;;
3993;SDS011;2011;48.238;13.948;2022-08-19T05:37:11;35.70;;;20.57;;
3993;SDS011;2011;48.238;13.948;2022-08-19T05:39:38;22.13;;;16.73;;
3993;SDS011;2011;48.238;13.948;2022-08-19T05:42:06;27.27;;;18.40;;
3993;SDS011;2011;48.238;13.948;2022-08-19T05:44:36;30.80;;;19.50;;
3993;SDS011;2011;48.238;13.948;2022-08-19T05:47:10;31.17;;;20.33;;
3993;SDS011;2011;48.238;13.948;2022-08-19T05:49:39;33.17;;;21.17;;
3993;SDS011;2011;48.238;13.948;2022-08-19T05:52:10;32.87;;;22.53;;
3993;SDS011;2011;48.238;13.948;2022-08-19T05:54:40;32.67;;;23.00;;
3993;SDS011;2011;48.238;13.948;2022-08-19T05:57:08;32.43;;;21.80;;
3993;SDS011;2011;48.238;13.948;2022-08-19T05:59:35;35.27;;;20.30;;
3993;SDS011;2011;48.238;13.948;2022-08-19T06:02:03;30.23;;;18.97;;
3993;SDS011;2011;48.238;13.948;2022-08-19T06:04:31;29.90;;;19.30;;
3993;SDS011;2011;48.238;13.948;2022-08-19T06:06:58;35.70;;;15.87;;
3993;SDS011;2011;48.238;13.948;2022-08-19T06:09:28;21.50;;;14.63;;
3993;SDS011;2011;48.238;13.948;2022-08-19T06:11:56;27.07;;;15.90;;
3993;SDS011;2011;48.238;13.948;2022-08-19T06:14:26;29.50;;;16.27;;
3993;SDS011;2011;48.238;13.948;2022-08-19T06:16:54;27.47;;;16.07;;
3993;SDS011;2011;48.238;13.948;2022-08-19T06:19:22;28.23;;;16.60;;
3993;SDS011;2011;48.238;13.948;2022-08-19T06:21:50;25.73;;;16.47;;
3993;SDS011;2011;48.238;13.948;2022-08-19T06:24:19;26.13;;;15.40;;
3993;SDS011;2011;48.238;13.948;2022-08-19T06:26:51;24.97;;;15.80;;
3993;SDS011;2011;48.238;13.948;2022-08-19T06:29:20;25.80;;;16.10;;
3993;SDS011;2011;48.238;13.948;2022-08-19T06:31:50;31.43;;;16.53;;
3993;SDS011;2011;48.238;13.948;2022-08-19T06:34:19;25.30;;;16.10;;
3993;SDS011;2011;48.238;13.948;2022-08-19T06:36:46;23.70;;;16.47;;
3993;SDS011;2011;48.238;13.948;2022-08-19T06:39:16;32.30;;;16.70;;
3993;SDS011;2011;48.238;13.948;2022-08-19T06:41:46;22.47;;;14.90;;
3993;SDS011;2011;48.238;13.948;2022-08-19T06:44:17;28.87;;;17.23;;
3993;SDS011;2011;48.238;13.948;2022-08-19T06:46:45;28.00;;;17.83;;
3993;SDS011;2011;48.238;13.948;2022-08-19T06:49:13;29.00;;;19.03;;
3993;SDS011;2011;48.238;13.948;2022-08-19T06:51:41;21.43;;;16.03;;
3993;SDS011;2011;48.238;13.948;2022-08-19T06:54:09;24.77;;;16.40;;
3993;SDS011;2011;48.238;13.948;2022-08-19T06:56:37;28.30;;;18.20;;
3993;SDS011;2011;48.238;13.948;2022-08-19T06:59:05;33.20;;;19.27;;
3993;SDS011;2011;48.238;13.948;2022-08-19T07:01:38;37.17;;;25.17;;
3993;SDS011;2011;48.238;13.948;2022-08-19T07:04:07;38.60;;;22.90;;
3993;SDS011;2011;48.238;13.948;2022-08-19T07:06:35;39.83;;;24.70;;
3993;SDS011;2011;48.238;13.948;2022-08-19T07:09:02;31.90;;;22.80;;
3993;SDS011;2011;48.238;13.948;2022-08-19T07:11:30;34.60;;;22.83;;
3993;SDS011;2011;48.238;13.948;2022-08-19T07:13:57;36.10;;;23.17;;
3993;SDS011;2011;48.238;13.948;2022-08-19T07:16:25;31.80;;;23.37;;
3993;SDS011;2011;48.238;13.948;2022-08-19T07:18:54;29.97;;;22.63;;
3993;SDS011;2011;48.238;13.948;2022-08-19T07:21:23;32.40;;;23.50;;
3993;SDS011;2011;48.238;13.948;2022-08-19T07:23:53;39.00;;;24.00;;
3993;SDS011;2011;48.238;13.948;2022-08-19T07:26:22;35.00;;;25.00;;
3993;SDS011;2011;48.238;13.948;2022-08-19T07:28:51;34.87;;;24.40;;
3993;SDS011;2011;48.238;13.948;2022-08-19T07:31:19;40.07;;;24.53;;
3993;SDS011;2011;48.238;13.948;2022-08-19T07:33:50;42.57;;;22.20;;
3993;SDS011;2011;48.238;13.948;2022-08-19T07:36:22;33.43;;;22.83;;
3993;SDS011;2011;48.238;13.948;2022-08-19T07:38:50;34.37;;;23.53;;
3993;SDS011;2011;48.238;13.948;2022-08-19T07:41:20;35.37;;;23.57;;
3993;SDS011;2011;48.238;13.948;2022-08-19T07:43:49;35.50;;;23.00;;
3993;SDS011;2011;48.238;13.948;2022-08-19T07:46:18;33.30;;;24.00;;
3993;SDS011;2011;48.238;13.948;2022-08-19T07:48:45;40.87;;;24.90;;
3993;SDS011;2011;48.238;13.948;2022-08-19T07:51:15;34.00;;;23.73;;
3993;SDS011;2011;48.238;13.948;2022-08-19T07:53:46;34.37;;;23.10;;
3993;SDS011;2011;48.238;13.948;2022-08-19T07:56:15;29.70;;;22.40;;
3993;SDS011;2011;48.238;13.948;2022-08-19T07:58:43;29.60;;;23.67;;
3993;SDS011;2011;48.238;13.948;2022-08-19T08:01:12;31.80;;;22.90;;
3993;SDS011;2011;48.238;13.948;2022-08-19T08:03:41;30.13;;;22.43;;
3993;SDS011;2011;48.238;13.948;2022-08-19T08:06:26;31.43;;;23.00;;
3993;SDS011;2011;48.238;13.948;2022-08-19T08:09:11;30.80;;;22.70;;
3993;SDS011;2011;48.238;13.948;2022-08-19T08:11:47;29.60;;;21.43;;
3993;SDS011;2011;48.238;13.948;2022-08-19T08:14:17;28.73;;;21.87;;
3993;SDS011;2011;48.238;13.948;2022-08-19T08:16:47;27.90;;;20.90;;
3993;SDS011;2011;48.238;13.948;2022-08-19T08:19:16;27.57;;;19.67;;
3993;SDS011;2011;48.238;13.948;2022-08-19T08:21:44;30.10;;;23.07;;
3993;SDS011;2011;48.238;13.948;2022-08-19T08:24:13;27.73;;;21.47;;
3993;SDS011;2011;48.238;13.948;2022-08-19T08:26:40;35.27;;;23.87;;
3993;SDS011;2011;48.238;13.948;2022-08-19T08:29:09;35.73;;;24.80;;
3993;SDS011;2011;48.238;13.948;2022-08-19T08:31:38;35.70;;;22.70;;
3993;SDS011;2011;48.238;13.948;2022-08-19T08:34:06;39.43;;;25.03;;
3993;SDS011;2011;48.238;13.948;2022-08-19T08:36:36;33.90;;;22.70;;
3993;SDS011;2011;48.238;13.948;2022-08-19T08:39:05;29.10;;;22.63;;
3993;SDS011;2011;48.238;13.948;2022-08-19T08:41:36;28.53;;;21.00;;
3993;SDS011;2011;48.238;13.948;2022-08-19T08:44:11;35.07;;;22.37;;
3993;SDS011;2011;48.238;13.948;2022-08-19T08:46:44;29.27;;;21.60;;
3993;SDS011;2011;48.238;13.948;2022-08-19T08:49:17;28.27;;;21.60;;
3993;SDS011;2011;48.238;13.948;2022-08-19T08:51:52;31.30;;;21.53;;
3993;SDS011;2011;48.238;13.948;2022-08-19T08:54:30;27.40;;;19.90;;
3993;SDS011;2011;48.238;13.948;2022-08-19T08:57:01;26.93;;;19.53;;
3993;SDS011;2011;48.238;13.948;2022-08-19T08:59:31;28.03;;;20.30;;
3993;SDS011;2011;48.238;13.948;2022-08-19T09:02:03;26.87;;;19.53;;
3993;SDS011;2011;48.238;13.948;2022-08-19T09:04:30;24.83;;;19.50;;
3993;SDS011;2011;48.238;13.948;2022-08-19T09:07:09;26.27;;;19.40;;
3993;SDS011;2011;48.238;13.948;2022-08-19T09:09:46;24.30;;;19.87;;
3993;SDS011;2011;48.238;13.948;2022-08-19T09:12:18;30.47;;;21.53;;
3993;SDS011;2011;48.238;13.948;2022-08-19T09:14:58;28.90;;;21.63;;
3993;SDS011;2011;48.238;13.948;2022-08-19T09:17:30;34.37;;;20.97;;
3993;SDS011;2011;48.238;13.948;2022-08-19T09:20:00;27.23;;;20.57;;
3993;SDS011;2011;48.238;13.948;2022-08-19T09:22:32;25.10;;;19.53;;
3993;SDS011;2011;48.238;13.948;2022-08-19T09:25:00;25.63;;;19.47;;
3993;SDS011;2011;48.238;13.948;2022-08-19T09:27:29;28.23;;;21.40;;
3993;SDS011;2011;48.238;13.948;2022-08-19T09:29:57;26.97;;;19.57;;
3993;SDS011;2011;48.238;13.948;2022-08-19T09:32:24;23.07;;;18.87;;
3993;SDS011;2011;48.238;13.948;2022-08-19T09:34:52;28.73;;;20.03;;
3993;SDS011;2011;48.238;13.948;2022-08-19T09:37:19;25.00;;;18.70;;
3993;SDS011;2011;48.238;13.948;2022-08-19T09:39:46;24.33;;;18.20;;
3993;SDS011;2011;48.238;13.948;2022-08-19T09:42:13;30.33;;;20.43;;
3993;SDS011;2011;48.238;13.948;2022-08-19T09:44:42;25.70;;;19.63;;
3993;SDS011;2011;48.238;13.948;2022-08-19T09:47:10;23.87;;;18.00;;
3993;SDS011;2011;48.238;13.948;2022-08-19T09:49:39;26.67;;;19.13;;
3993;SDS011;2011;48.238;13.948;2022-08-19T09:52:08;21.73;;;15.10;;
3993;SDS011;2011;48.238;13.948;2022-08-19T09:54:35;19.30;;;15.80;;
3993;SDS011;2011;48.238;13.948;2022-08-19T09:57:02;20.57;;;16.50;;
3993;SDS011;2011;48.238;13.948;2022-08-19T09:59:29;20.13;;;15.70;;
3993;SDS011;2011;48.238;13.948;2022-08-19T10:01:58;23.13;;;17.10;;
3993;SDS011;2011;48.238;13.948;2022-08-19T10:04:25;28.33;;;18.07;;
3993;SDS011;2011;48.238;13.948;2022-08-19T10:07:13;24.73;;;17.13;;
3993;SDS011;2011;48.238;13.948;2022-08-19T10:09:40;30.43;;;17.30;;
3993;SDS011;2011;48.238;13.948;2022-08-19T10:12:08;21.37;;;15.00;;
3993;SDS011;2011;48.238;13.948;2022-08-19T10:14:35;26.17;;;17.17;;
3993;SDS011;2011;48.238;13.948;2022-08-19T10:17:03;19.77;;;16.13;;
3993;SDS011;2011;48.238;13.948;2022-08-19T10:19:30;25.87;;;18.30;;
3993;SDS011;2011;48.238;13.948;2022-08-19T10:22:02;24.10;;;17.50;;
3993;SDS011;2011;48.238;13.948;2022-08-19T10:24:30;20.90;;;16.00;;
3993;SDS011;2011;48.238;13.948;2022-08-19T10:26:58;27.60;;;16.73;;
3993;SDS011;2011;48.238;13.948;2022-08-19T10:29:28;22.53;;;18.27;;
3993;SDS011;2011;48.238;13.948;2022-08-19T10:31:57;25.20;;;17.57;;
3993;SDS011;2011;48.238;13.948;2022-08-19T10:34:26;27.57;;;19.80;;
3993;SDS011;2011;48.238;13.948;2022-08-19T10:36:54;22.10;;;17.00;;
3993;SDS011;2011;48.238;13.948;2022-08-19T10:39:23;26.27;;;16.30;;
3993;SDS011;2011;48.238;13.948;2022-08-19T10:41:50;21.50;;;16.47;;
3993;SDS011;2011;48.238;13.948;2022-08-19T10:44:17;20.70;;;15.17;;
3993;SDS011;2011;48.238;13.948;2022-08-19T10:46:44;24.20;;;17.70;;
3993;SDS011;2011;48.238;13.948;2022-08-19T10:49:12;27.97;;;17.70;;
3993;SDS011;2011;48.238;13.948;2022-08-19T10:51:40;25.13;;;18.50;;
3993;SDS011;2011;48.238;13.948;2022-08-19T10:54:25;23.80;;;17.50;;
3993;SDS011;2011;48.238;13.948;2022-08-19T10:57:13;23.30;;;14.53;;
3993;SDS011;2011;48.238;13.948;2022-08-19T10:59:39;21.30;;;14.27;;
3993;SDS011;2011;48.238;13.948;2022-08-19T11:02:08;28.70;;;14.43;;
3993;SDS011;2011;48.238;13.948;2022-08-19T11:04:37;30.03;;;15.00;;
3993;SDS011;2011;48.238;13.948;2022-08-19T11:07:07;17.10;;;13.20;;
3993;SDS011;2011;48.238;13.948;2022-08-19T11:09:36;20.17;;;12.87;;
3993;SDS011;2011;48.238;13.948;2022-08-19T11:12:05;18.00;;;11.63;;
3993;SDS011;2011;48.238;13.948;2022-08-19T11:14:33;12.50;;;10.03;;
3993;SDS011;2011;48.238;13.948;2022-08-19T11:17:01;15.53;;;9.80;;
3993;SDS011;2011;48.238;13.948;2022-08-19T11:19:29;14.83;;;11.10;;
3993;SDS011;2011;48.238;13.948;2022-08-19T11:21:57;14.47;;;9.97;;
3993;SDS011;2011;48.238;13.948;2022-08-19T11:24:28;14.10;;;10.30;;
3993;SDS011;2011;48.238;13.948;2022-08-19T11:27:00;13.63;;;10.80;;
3993;SDS011;2011;48.238;13.948;2022-08-19T11:29:29;13.73;;;10.27;;
3993;SDS011;2011;48.238;13.948;2022-08-19T11:31:59;14.93;;;8.80;;
3993;SDS011;2011;48.238;13.948;2022-08-19T11:34:29;14.43;;;10.17;;
3993;SDS011;2011;48.238;13.948;2022-08-19T11:36:57;16.50;;;10.43;;
3993;SDS011;2011;48.238;13.948;2022-08-19T11:39:25;13.40;;;9.90;;
3993;SDS011;2011;48.238;13.948;2022-08-19T11:41:54;12.40;;;9.27;;
3993;SDS011;2011;48.238;13.948;2022-08-19T11:44:23;12.67;;;9.00;;
3993;SDS011;2011;48.238;13.948;2022-08-19T11:46:51;14.10;;;8.90;;
3993;SDS011;2011;48.238;13.948;2022-08-19T11:49:18;14.47;;;9.03;;
3993;SDS011;2011;48.238;13.948;2022-08-19T11:51:46;11.77;;;9.20;;
3993;SDS011;2011;48.238;13.948;2022-08-19T11:54:15;12.63;;;8.73;;
3993;SDS011;2011;48.238;13.948;2022-08-19T11:56:43;15.53;;;9.40;;
3993;SDS011;2011;48.238;13.948;2022-08-19T11:59:14;11.37;;;7.63;;
3993;SDS011;2011;48.238;13.948;2022-08-19T12:01:41;9.43;;;7.10;;
3993;SDS011;2011;48.238;13.948;2022-08-19T12:04:08;15.33;;;7.60;;
3993;SDS011;2011;48.238;13.948;2022-08-19T12:06:37;11.67;;;7.33;;
3993;SDS011;2011;48.238;13.948;2022-08-19T12:09:06;9.90;;;6.23;;
3993;SDS011;2011;48.238;13.948;2022-08-19T12:11:34;9.40;;;6.80;;
3993;SDS011;2011;48.238;13.948;2022-08-19T12:14:03;9.90;;;7.27;;
3993;SDS011;2011;48.238;13.948;2022-08-19T12:16:32;14.60;;;7.47;;
3993;SDS011;2011;48.238;13.948;2022-08-19T12:18:59;11.10;;;7.40;;
3993;SDS011;2011;48.238;13.948;2022-08-19T12:21:29;10.43;;;7.33;;
3993;SDS011;2011;48.238;13.948;2022-08-19T12:23:58;13.37;;;7.10;;
3993;SDS011;2011;48.238;13.948;2022-08-19T12:26:26;9.13;;;7.10;;
3993;SDS011;2011;48.238;13.948;2022-08-19T12:28:54;11.87;;;7.70;;
3993;SDS011;2011;48.238;13.948;2022-08-19T12:31:21;12.93;;;7.23;;
3993;SDS011;2011;48.238;13.948;2022-08-19T12:33:50;10.30;;;7.30;;
3993;SDS011;2011;48.238;13.948;2022-08-19T12:36:17;11.47;;;7.00;;
3993;SDS011;2011;48.238;13.948;2022-08-19T12:38:44;10.27;;;7.03;;
3993;SDS011;2011;48.238;13.948;2022-08-19T12:41:12;14.87;;;7.10;;
3993;SDS011;2011;48.238;13.948;2022-08-19T12:43:42;9.63;;;7.03;;
3993;SDS011;2011;48.238;13.948;2022-08-19T12:46:09;9.77;;;6.93;;
3993;SDS011;2011;48.238;13.948;2022-08-19T12:48:37;11.70;;;7.00;;
3993;SDS011;2011;48.238;13.948;2022-08-19T12:51:09;10.73;;;6.80;;
3993;SDS011;2011;48.238;13.948;2022-08-19T12:53:37;10.13;;;7.30;;
3993;SDS011;2011;48.238;13.948;2022-08-19T12:56:05;11.73;;;8.03;;
3993;SDS011;2011;48.238;13.948;2022-08-19T12:58:32;15.00;;;7.80;;
3993;SDS011;2011;48.238;13.948;2022-08-19T13:00:59;12.33;;;7.00;;
3993;SDS011;2011;48.238;13.948;2022-08-19T13:03:32;10.50;;;7.33;;
3993;SDS011;2011;48.238;13.948;2022-08-19T13:05:59;12.13;;;6.70;;
3993;SDS011;2011;48.238;13.948;2022-08-19T13:08:27;10.43;;;6.43;;
3993;SDS011;2011;48.238;13.948;2022-08-19T13:10:54;10.23;;;7.13;;
3993;SDS011;2011;48.238;13.948;2022-08-19T13:13:23;11.67;;;6.77;;
3993;SDS011;2011;48.238;13.948;2022-08-19T13:15:51;8.10;;;6.20;;
3993;SDS011;2011;48.238;13.948;2022-08-19T13:18:18;12.67;;;6.33;;
3993;SDS011;2011;48.238;13.948;2022-08-19T13:20:45;13.03;;;5.53;;
3993;SDS011;2011;48.238;13.948;2022-08-19T13:23:12;8.80;;;5.73;;
3993;SDS011;2011;48.238;13.948;2022-08-19T13:25:40;9.27;;;5.50;;
3993;SDS011;2011;48.238;13.948;2022-08-19T13:28:07;9.03;;;5.30;;
3993;SDS011;2011;48.238;13.948;2022-08-19T13:30:34;11.10;;;5.80;;
3993;SDS011;2011;48.238;13.948;2022-08-19T13:33:19;13.70;;;5.50;;
3993;SDS011;2011;48.238;13.948;2022-08-19T13:35:47;20.30;;;5.87;;
3993;SDS011;2011;48.238;13.948;2022-08-19T13:38:21;9.00;;;5.17;;
3993;SDS011;2011;48.238;13.948;2022-08-19T13:40:51;10.63;;;5.27;;
3993;SDS011;2011;48.238;13.948;2022-08-19T13:43:19;16.00;;;5.67;;
3993;SDS011;2011;48.238;13.948;2022-08-19T13:45:48;9.90;;;5.50;;
3993;SDS011;2011;48.238;13.948;2022-08-19T13:48:17;6.90;;;4.73;;
3993;SDS011;2011;48.238;13.948;2022-08-19T13:50:44;11.50;;;5.63;;
3993;SDS011;2011;48.238;13.948;2022-08-19T13:53:13;8.87;;;5.77;;
3993;SDS011;2011;48.238;13.948;2022-08-19T13:55:40;10.23;;;5.57;;
3993;SDS011;2011;48.238;13.948;2022-08-19T13:58:10;7.97;;;5.60;;
3993;SDS011;2011;48.238;13.948;2022-08-19T14:00:39;9.63;;;5.00;;
3993;SDS011;2011;48.238;13.948;2022-08-19T14:03:07;9.20;;;5.53;;
3993;SDS011;2011;48.238;13.948;2022-08-19T14:05:35;8.10;;;5.83;;
3993;SDS011;2011;48.238;13.948;2022-08-19T14:08:03;7.43;;;5.00;;
3993;SDS011;2011;48.238;13.948;2022-08-19T14:10:30;7.23;;;4.80;;
3993;SDS011;2011;48.238;13.948;2022-08-19T14:12:58;8.47;;;4.63;;
3993;SDS011;2011;48.238;13.948;2022-08-19T14:15:28;7.93;;;5.20;;
3993;SDS011;2011;48.238;13.948;2022-08-19T14:17:56;7.37;;;4.33;;
3993;SDS011;2011;48.238;13.948;2022-08-19T14:20:24;6.20;;;4.87;;
3993;SDS011;2011;48.238;13.948;2022-08-19T14:22:52;9.80;;;5.50;;
3993;SDS011;2011;48.238;13.948;2022-08-19T14:25:21;8.13;;;4.73;;
3993;SDS011;2011;48.238;13.948;2022-08-19T14:27:49;7.90;;;4.70;;
3993;SDS011;2011;48.238;13.948;2022-08-19T14:30:17;9.03;;;5.00;;
3993;SDS011;2011;48.238;13.948;2022-08-19T14:32:47;10.40;;;5.77;;
3993;SDS011;2011;48.238;13.948;2022-08-19T14:35:15;9.03;;;5.00;;
3993;SDS011;2011;48.238;13.948;2022-08-19T14:37:43;9.07;;;5.80;;
3993;SDS011;2011;48.238;13.948;2022-08-19T14:40:11;8.93;;;5.50;;
3993;SDS011;2011;48.238;13.948;2022-08-19T14:42:39;7.70;;;5.37;;
3993;SDS011;2011;48.238;13.948;2022-08-19T14:45:07;9.80;;;5.00;;
3993;SDS011;2011;48.238;13.948;2022-08-19T14:47:34;10.00;;;5.30;;
3993;SDS011;2011;48.238;13.948;2022-08-19T14:50:05;11.57;;;4.87;;
3993;SDS011;2011;48.238;13.948;2022-08-19T14:52:33;7.40;;;5.10;;
3993;SDS011;2011;48.238;13.948;2022-08-19T14:55:00;10.00;;;5.00;;